sensor_id;sensor_type;location;lat;lon;timestamp;P1;durP1;ratioP1;P2;durP2;ratioP2
16870;SDS011;8552;48.120;-1.456;2023-06-10T00:01:58;14.32;;;9.50;;
16870;SDS011;8552;48.120;-1.456;2023-06-10T00:04:25;14.75;;;10.20;;
16870;SDS011;8552;48.120;-1.456;2023-06-10T00:06:51;13.65;;;11.20;;
16870;SDS011;8552;48.120;-1.456;2023-06-10T00:09:18;18.00;;;12.68;;
16870;SDS011;8552;48.120;-1.456;2023-06-10T00:11:46;14.57;;;12.98;;
16870;SDS011;8552;48.120;-1.456;2023-06-10T00:14:12;16.15;;;12.27;;
16870;SDS011;8552;48.120;-1.456;2023-06-10T00:16:38;13.13;;;11.18;;
16870;SDS011;8552;48.120;-1.456;2023-06-10T00:19:04;12.25;;;10.25;;
16870;SDS011;8552;48.120;-1.456;2023-06-10T00:21:31;13.68;;;10.43;;
16870;SDS011;8552;48.120;-1.456;2023-06-10T00:24:05;13.93;;;11.45;;
16870;SDS011;8552;48.120;-1.456;2023-06-10T00:26:31;14.60;;;11.48;;
16870;SDS011;8552;48.120;-1.456;2023-06-10T00:28:57;17.90;;;12.52;;
16870;SDS011;8552;48.120;-1.456;2023-06-10T00:31:23;14.18;;;11.93;;
16870;SDS011;8552;48.120;-1.456;2023-06-10T00:33:51;13.32;;;10.63;;
16870;SDS011;8552;48.120;-1.456;2023-06-10T00:36:17;19.92;;;12.50;;
16870;SDS011;8552;48.120;-1.456;2023-06-10T00:38:43;17.15;;;12.95;;
16870;SDS011;8552;48.120;-1.456;2023-06-10T00:41:09;17.67;;;12.45;;
16870;SDS011;8552;48.120;-1.456;2023-06-10T00:43:35;15.82;;;12.88;;
16870;SDS011;8552;48.120;-1.456;2023-06-10T00:46:01;20.13;;;14.70;;
16870;SDS011;8552;48.120;-1.456;2023-06-10T00:48:27;19.38;;;14.30;;
16870;SDS011;8552;48.120;-1.456;2023-06-10T00:50:54;18.25;;;14.00;;
16870;SDS011;8552;48.120;-1.456;2023-06-10T00:53:21;18.77;;;13.77;;
16870;SDS011;8552;48.120;-1.456;2023-06-10T00:55:47;18.48;;;13.73;;
16870;SDS011;8552;48.120;-1.456;2023-06-10T00:58:13;19.35;;;13.55;;
16870;SDS011;8552;48.120;-1.456;2023-06-10T01:00:40;18.02;;;14.68;;
16870;SDS011;8552;48.120;-1.456;2023-06-10T01:03:06;18.05;;;13.32;;
16870;SDS011;8552;48.120;-1.456;2023-06-10T01:05:34;17.85;;;14.05;;
16870;SDS011;8552;48.120;-1.456;2023-06-10T01:08:03;21.63;;;14.38;;
16870;SDS011;8552;48.120;-1.456;2023-06-10T01:10:42;15.63;;;12.57;;
16870;SDS011;8552;48.120;-1.456;2023-06-10T01:13:09;20.48;;;13.60;;
16870;SDS011;8552;48.120;-1.456;2023-06-10T01:15:37;17.27;;;13.00;;
16870;SDS011;8552;48.120;-1.456;2023-06-10T01:18:08;17.58;;;12.73;;
16870;SDS011;8552;48.120;-1.456;2023-06-10T01:20:40;23.63;;;13.75;;
16870;SDS011;8552;48.120;-1.456;2023-06-10T01:23:07;17.25;;;13.23;;
16870;SDS011;8552;48.120;-1.456;2023-06-10T01:25:34;15.70;;;13.13;;
16870;SDS011;8552;48.120;-1.456;2023-06-10T01:30:37;17.85;;;12.43;;
16870;SDS011;8552;48.120;-1.456;2023-06-10T01:33:07;20.65;;;14.27;;
16870;SDS011;8552;48.120;-1.456;2023-06-10T01:35:35;17.30;;;13.27;;
16870;SDS011;8552;48.120;-1.456;2023-06-10T01:38:02;16.17;;;12.60;;
16870;SDS011;8552;48.120;-1.456;2023-06-10T01:40:29;13.95;;;11.77;;
16870;SDS011;8552;48.120;-1.456;2023-06-10T01:42:55;14.60;;;11.45;;
16870;SDS011;8552;48.120;-1.456;2023-06-10T01:45:22;18.45;;;12.38;;
16870;SDS011;8552;48.120;-1.456;2023-06-10T01:47:48;15.52;;;13.02;;
16870;SDS011;8552;48.120;-1.456;2023-06-10T01:50:14;15.52;;;12.63;;
16870;SDS011;8552;48.120;-1.456;2023-06-10T01:52:41;15.27;;;11.80;;
16870;SDS011;8552;48.120;-1.456;2023-06-10T01:55:07;13.88;;;10.75;;
16870;SDS011;8552;48.120;-1.456;2023-06-10T01:57:33;13.77;;;11.35;;
16870;SDS011;8552;48.120;-1.456;2023-06-10T01:59:59;15.00;;;10.95;;
16870;SDS011;8552;48.120;-1.456;2023-06-10T02:02:25;15.30;;;11.38;;
16870;SDS011;8552;48.120;-1.456;2023-06-10T02:04:51;20.15;;;13.23;;
16870;SDS011;8552;48.120;-1.456;2023-06-10T02:07:17;15.32;;;11.90;;
16870;SDS011;8552;48.120;-1.456;2023-06-10T02:09:43;15.75;;;12.40;;
16870;SDS011;8552;48.120;-1.456;2023-06-10T02:12:09;16.98;;;11.77;;
16870;SDS011;8552;48.120;-1.456;2023-06-10T02:14:36;16.58;;;12.38;;
16870;SDS011;8552;48.120;-1.456;2023-06-10T02:17:02;17.65;;;13.05;;
16870;SDS011;8552;48.120;-1.456;2023-06-10T02:19:29;13.35;;;11.55;;
16870;SDS011;8552;48.120;-1.456;2023-06-10T02:21:55;13.27;;;11.88;;
16870;SDS011;8552;48.120;-1.456;2023-06-10T02:24:21;15.13;;;12.73;;
16870;SDS011;8552;48.120;-1.456;2023-06-10T02:26:47;16.70;;;12.32;;
16870;SDS011;8552;48.120;-1.456;2023-06-10T02:29:14;18.05;;;12.60;;
16870;SDS011;8552;48.120;-1.456;2023-06-10T02:31:40;15.15;;;12.00;;
16870;SDS011;8552;48.120;-1.456;2023-06-10T02:34:06;15.90;;;11.82;;
16870;SDS011;8552;48.120;-1.456;2023-06-10T02:36:32;18.52;;;12.40;;
16870;SDS011;8552;48.120;-1.456;2023-06-10T02:39:00;18.08;;;13.82;;
16870;SDS011;8552;48.120;-1.456;2023-06-10T02:41:27;20.33;;;13.70;;
16870;SDS011;8552;48.120;-1.456;2023-06-10T02:43:54;16.67;;;12.82;;
16870;SDS011;8552;48.120;-1.456;2023-06-10T02:46:20;13.52;;;11.55;;
16870;SDS011;8552;48.120;-1.456;2023-06-10T02:48:46;14.15;;;11.80;;
16870;SDS011;8552;48.120;-1.456;2023-06-10T02:51:14;16.48;;;13.40;;
16870;SDS011;8552;48.120;-1.456;2023-06-10T02:53:40;19.10;;;15.20;;
16870;SDS011;8552;48.120;-1.456;2023-06-10T02:56:06;18.27;;;13.38;;
16870;SDS011;8552;48.120;-1.456;2023-06-10T02:58:32;17.70;;;13.80;;
16870;SDS011;8552;48.120;-1.456;2023-06-10T03:00:58;16.13;;;14.10;;
16870;SDS011;8552;48.120;-1.456;2023-06-10T03:03:24;18.65;;;13.27;;
16870;SDS011;8552;48.120;-1.456;2023-06-10T03:05:52;19.33;;;13.35;;
16870;SDS011;8552;48.120;-1.456;2023-06-10T03:08:18;16.88;;;12.98;;
16870;SDS011;8552;48.120;-1.456;2023-06-10T03:10:44;17.55;;;14.15;;
16870;SDS011;8552;48.120;-1.456;2023-06-10T03:13:10;19.80;;;14.85;;
16870;SDS011;8552;48.120;-1.456;2023-06-10T03:15:36;17.45;;;14.40;;
16870;SDS011;8552;48.120;-1.456;2023-06-10T03:18:02;18.75;;;11.70;;
16870;SDS011;8552;48.120;-1.456;2023-06-10T03:20:28;15.45;;;13.55;;
16870;SDS011;8552;48.120;-1.456;2023-06-10T03:22:55;24.85;;;14.20;;
16870;SDS011;8552;48.120;-1.456;2023-06-10T03:25:21;18.65;;;14.18;;
16870;SDS011;8552;48.120;-1.456;2023-06-10T03:27:47;16.83;;;13.27;;
16870;SDS011;8552;48.120;-1.456;2023-06-10T03:30:13;18.52;;;15.13;;
16870;SDS011;8552;48.120;-1.456;2023-06-10T03:32:40;22.90;;;15.65;;
16870;SDS011;8552;48.120;-1.456;2023-06-10T03:35:06;18.80;;;14.85;;
16870;SDS011;8552;48.120;-1.456;2023-06-10T03:37:32;27.55;;;14.80;;
16870;SDS011;8552;48.120;-1.456;2023-06-10T03:39:58;23.60;;;15.85;;
16870;SDS011;8552;48.120;-1.456;2023-06-10T03:42:24;20.88;;;15.95;;
16870;SDS011;8552;48.120;-1.456;2023-06-10T03:44:50;23.13;;;15.20;;
16870;SDS011;8552;48.120;-1.456;2023-06-10T03:47:17;15.88;;;13.30;;
16870;SDS011;8552;48.120;-1.456;2023-06-10T03:49:43;21.42;;;15.70;;
16870;SDS011;8552;48.120;-1.456;2023-06-10T03:52:09;19.88;;;15.35;;
16870;SDS011;8552;48.120;-1.456;2023-06-10T03:54:35;18.58;;;14.75;;
16870;SDS011;8552;48.120;-1.456;2023-06-10T03:57:01;15.90;;;13.00;;
16870;SDS011;8552;48.120;-1.456;2023-06-10T03:59:28;20.13;;;14.25;;
16870;SDS011;8552;48.120;-1.456;2023-06-10T04:01:54;19.75;;;14.77;;
16870;SDS011;8552;48.120;-1.456;2023-06-10T04:04:20;17.90;;;14.45;;
16870;SDS011;8552;48.120;-1.456;2023-06-10T04:06:46;17.55;;;15.52;;
16870;SDS011;8552;48.120;-1.456;2023-06-10T04:09:13;24.27;;;15.18;;
16870;SDS011;8552;48.120;-1.456;2023-06-10T04:11:40;20.15;;;15.93;;
16870;SDS011;8552;48.120;-1.456;2023-06-10T04:14:07;21.42;;;15.30;;
16870;SDS011;8552;48.120;-1.456;2023-06-10T04:16:33;19.50;;;15.80;;
16870;SDS011;8552;48.120;-1.456;2023-06-10T04:19:00;24.85;;;17.92;;
16870;SDS011;8552;48.120;-1.456;2023-06-10T04:21:26;22.98;;;16.13;;
16870;SDS011;8552;48.120;-1.456;2023-06-10T04:23:52;19.58;;;15.38;;
16870;SDS011;8552;48.120;-1.456;2023-06-10T04:26:18;25.77;;;15.82;;
16870;SDS011;8552;48.120;-1.456;2023-06-10T04:28:44;21.52;;;14.80;;
16870;SDS011;8552;48.120;-1.456;2023-06-10T04:31:10;19.40;;;15.63;;
16870;SDS011;8552;48.120;-1.456;2023-06-10T04:33:36;30.80;;;17.05;;
16870;SDS011;8552;48.120;-1.456;2023-06-10T04:36:03;20.77;;;15.57;;
16870;SDS011;8552;48.120;-1.456;2023-06-10T04:38:29;23.45;;;15.38;;
16870;SDS011;8552;48.120;-1.456;2023-06-10T04:40:56;19.30;;;16.02;;
16870;SDS011;8552;48.120;-1.456;2023-06-10T04:43:22;22.60;;;17.85;;
16870;SDS011;8552;48.120;-1.456;2023-06-10T04:45:48;26.95;;;17.50;;
16870;SDS011;8552;48.120;-1.456;2023-06-10T04:48:14;28.38;;;18.42;;
16870;SDS011;8552;48.120;-1.456;2023-06-10T04:50:40;24.83;;;17.33;;
16870;SDS011;8552;48.120;-1.456;2023-06-10T04:53:06;24.38;;;17.95;;
16870;SDS011;8552;48.120;-1.456;2023-06-10T04:55:32;25.75;;;18.02;;
16870;SDS011;8552;48.120;-1.456;2023-06-10T04:57:59;22.10;;;16.73;;
16870;SDS011;8552;48.120;-1.456;2023-06-10T05:00:25;19.25;;;16.35;;
16870;SDS011;8552;48.120;-1.456;2023-06-10T05:02:51;19.38;;;15.20;;
16870;SDS011;8552;48.120;-1.456;2023-06-10T05:05:17;26.63;;;17.92;;
16870;SDS011;8552;48.120;-1.456;2023-06-10T05:07:43;23.65;;;17.42;;
16870;SDS011;8552;48.120;-1.456;2023-06-10T05:10:09;20.85;;;15.55;;
16870;SDS011;8552;48.120;-1.456;2023-06-10T05:12:37;23.52;;;17.50;;
16870;SDS011;8552;48.120;-1.456;2023-06-10T05:15:04;20.55;;;16.08;;
16870;SDS011;8552;48.120;-1.456;2023-06-10T05:17:30;22.55;;;16.10;;
16870;SDS011;8552;48.120;-1.456;2023-06-10T05:19:56;21.17;;;16.20;;
16870;SDS011;8552;48.120;-1.456;2023-06-10T05:22:22;23.58;;;17.15;;
16870;SDS011;8552;48.120;-1.456;2023-06-10T05:24:49;23.23;;;17.58;;
16870;SDS011;8552;48.120;-1.456;2023-06-10T05:27:19;25.25;;;17.45;;
16870;SDS011;8552;48.120;-1.456;2023-06-10T05:29:46;25.13;;;17.10;;
16870;SDS011;8552;48.120;-1.456;2023-06-10T05:32:12;22.90;;;17.30;;
16870;SDS011;8552;48.120;-1.456;2023-06-10T05:34:38;23.15;;;17.02;;
16870;SDS011;8552;48.120;-1.456;2023-06-10T05:37:04;23.92;;;18.33;;
16870;SDS011;8552;48.120;-1.456;2023-06-10T05:39:30;25.10;;;17.95;;
16870;SDS011;8552;48.120;-1.456;2023-06-10T05:41:57;26.60;;;19.40;;
16870;SDS011;8552;48.120;-1.456;2023-06-10T05:44:24;24.35;;;18.73;;
16870;SDS011;8552;48.120;-1.456;2023-06-10T05:46:50;26.73;;;19.75;;
16870;SDS011;8552;48.120;-1.456;2023-06-10T05:49:16;25.13;;;19.85;;
16870;SDS011;8552;48.120;-1.456;2023-06-10T05:51:42;26.60;;;19.52;;
16870;SDS011;8552;48.120;-1.456;2023-06-10T05:54:08;27.05;;;20.65;;
16870;SDS011;8552;48.120;-1.456;2023-06-10T05:56:34;26.92;;;20.70;;
16870;SDS011;8552;48.120;-1.456;2023-06-10T05:59:00;24.58;;;19.25;;
16870;SDS011;8552;48.120;-1.456;2023-06-10T06:01:26;27.52;;;20.48;;
16870;SDS011;8552;48.120;-1.456;2023-06-10T06:03:52;26.75;;;18.95;;
16870;SDS011;8552;48.120;-1.456;2023-06-10T06:06:18;25.73;;;19.33;;
16870;SDS011;8552;48.120;-1.456;2023-06-10T06:08:45;29.73;;;20.52;;
16870;SDS011;8552;48.120;-1.456;2023-06-10T06:11:11;31.20;;;20.40;;
16870;SDS011;8552;48.120;-1.456;2023-06-10T06:13:38;28.27;;;20.55;;
16870;SDS011;8552;48.120;-1.456;2023-06-10T06:16:05;28.15;;;21.02;;
16870;SDS011;8552;48.120;-1.456;2023-06-10T06:18:31;30.27;;;19.83;;
16870;SDS011;8552;48.120;-1.456;2023-06-10T06:20:57;28.05;;;19.90;;
16870;SDS011;8552;48.120;-1.456;2023-06-10T06:23:23;33.55;;;20.92;;
16870;SDS011;8552;48.120;-1.456;2023-06-10T06:25:49;33.92;;;21.80;;
16870;SDS011;8552;48.120;-1.456;2023-06-10T06:28:15;28.40;;;20.08;;
16870;SDS011;8552;48.120;-1.456;2023-06-10T06:30:41;27.00;;;18.98;;
16870;SDS011;8552;48.120;-1.456;2023-06-10T06:33:07;28.55;;;20.33;;
16870;SDS011;8552;48.120;-1.456;2023-06-10T06:35:33;25.58;;;19.27;;
16870;SDS011;8552;48.120;-1.456;2023-06-10T06:37:59;29.77;;;19.50;;
16870;SDS011;8552;48.120;-1.456;2023-06-10T06:40:25;25.90;;;20.08;;
16870;SDS011;8552;48.120;-1.456;2023-06-10T06:42:51;26.15;;;20.20;;
16870;SDS011;8552;48.120;-1.456;2023-06-10T06:45:18;30.30;;;21.08;;
16870;SDS011;8552;48.120;-1.456;2023-06-10T06:47:44;31.92;;;21.13;;
16870;SDS011;8552;48.120;-1.456;2023-06-10T06:50:10;27.05;;;20.13;;
16870;SDS011;8552;48.120;-1.456;2023-06-10T06:52:36;26.13;;;19.65;;
16870;SDS011;8552;48.120;-1.456;2023-06-10T06:55:02;32.97;;;21.75;;
16870;SDS011;8552;48.120;-1.456;2023-06-10T06:57:28;26.27;;;20.65;;
16870;SDS011;8552;48.120;-1.456;2023-06-10T06:59:54;29.02;;;21.45;;
16870;SDS011;8552;48.120;-1.456;2023-06-10T07:02:20;27.33;;;21.10;;
16870;SDS011;8552;48.120;-1.456;2023-06-10T07:04:46;29.77;;;20.83;;
16870;SDS011;8552;48.120;-1.456;2023-06-10T07:07:14;25.63;;;19.17;;
16870;SDS011;8552;48.120;-1.456;2023-06-10T07:09:40;28.30;;;20.30;;
16870;SDS011;8552;48.120;-1.456;2023-06-10T07:12:07;28.20;;;20.05;;
16870;SDS011;8552;48.120;-1.456;2023-06-10T07:14:33;25.27;;;19.33;;
16870;SDS011;8552;48.120;-1.456;2023-06-10T07:16:59;24.77;;;19.05;;
16870;SDS011;8552;48.120;-1.456;2023-06-10T07:19:25;24.45;;;19.30;;
16870;SDS011;8552;48.120;-1.456;2023-06-10T07:21:51;25.25;;;20.05;;
16870;SDS011;8552;48.120;-1.456;2023-06-10T07:24:17;28.27;;;20.65;;
16870;SDS011;8552;48.120;-1.456;2023-06-10T07:26:45;26.67;;;19.77;;
16870;SDS011;8552;48.120;-1.456;2023-06-10T07:29:11;25.30;;;18.30;;
16870;SDS011;8552;48.120;-1.456;2023-06-10T07:31:37;25.80;;;18.90;;
16870;SDS011;8552;48.120;-1.456;2023-06-10T07:34:03;26.52;;;20.08;;
16870;SDS011;8552;48.120;-1.456;2023-06-10T07:36:29;23.52;;;19.40;;
16870;SDS011;8552;48.120;-1.456;2023-06-10T07:38:55;27.50;;;20.45;;
16870;SDS011;8552;48.120;-1.456;2023-06-10T07:41:22;28.75;;;21.08;;
16870;SDS011;8552;48.120;-1.456;2023-06-10T07:43:50;24.30;;;18.75;;
16870;SDS011;8552;48.120;-1.456;2023-06-10T07:46:19;25.70;;;20.08;;
16870;SDS011;8552;48.120;-1.456;2023-06-10T07:48:46;27.15;;;20.40;;
16870;SDS011;8552;48.120;-1.456;2023-06-10T07:51:12;26.02;;;20.20;;
16870;SDS011;8552;48.120;-1.456;2023-06-10T07:53:38;24.08;;;19.00;;
16870;SDS011;8552;48.120;-1.456;2023-06-10T07:56:04;26.13;;;19.83;;
16870;SDS011;8552;48.120;-1.456;2023-06-10T07:58:30;24.52;;;19.83;;
16870;SDS011;8552;48.120;-1.456;2023-06-10T08:00:56;25.30;;;19.52;;
16870;SDS011;8552;48.120;-1.456;2023-06-10T08:03:22;22.20;;;19.30;;
16870;SDS011;8552;48.120;-1.456;2023-06-10T08:05:48;21.95;;;18.33;;
16870;SDS011;8552;48.120;-1.456;2023-06-10T08:08:14;24.38;;;19.38;;
16870;SDS011;8552;48.120;-1.456;2023-06-10T08:10:40;26.90;;;20.48;;
16870;SDS011;8552;48.120;-1.456;2023-06-10T08:13:07;22.02;;;18.80;;
16870;SDS011;8552;48.120;-1.456;2023-06-10T08:15:33;22.67;;;18.50;;
16870;SDS011;8552;48.120;-1.456;2023-06-10T08:18:00;23.30;;;18.27;;
16870;SDS011;8552;48.120;-1.456;2023-06-10T08:20:26;25.77;;;18.55;;
16870;SDS011;8552;48.120;-1.456;2023-06-10T08:22:52;24.88;;;19.42;;
16870;SDS011;8552;48.120;-1.456;2023-06-10T08:25:18;23.58;;;19.20;;
16870;SDS011;8552;48.120;-1.456;2023-06-10T08:27:46;25.17;;;19.85;;
16870;SDS011;8552;48.120;-1.456;2023-06-10T08:30:12;22.70;;;18.48;;
16870;SDS011;8552;48.120;-1.456;2023-06-10T08:32:38;22.95;;;18.10;;
16870;SDS011;8552;48.120;-1.456;2023-06-10T08:35:04;25.42;;;19.23;;
16870;SDS011;8552;48.120;-1.456;2023-06-10T08:37:31;24.88;;;19.08;;
16870;SDS011;8552;48.120;-1.456;2023-06-10T08:39:57;23.60;;;19.85;;
16870;SDS011;8552;48.120;-1.456;2023-06-10T08:42:25;27.25;;;20.50;;
16870;SDS011;8552;48.120;-1.456;2023-06-10T08:44:54;25.00;;;19.92;;
16870;SDS011;8552;48.120;-1.456;2023-06-10T08:47:22;24.70;;;20.13;;
16870;SDS011;8552;48.120;-1.456;2023-06-10T08:49:50;25.20;;;20.75;;
16870;SDS011;8552;48.120;-1.456;2023-06-10T08:52:21;23.67;;;18.70;;
16870;SDS011;8552;48.120;-1.456;2023-06-10T08:54:59;26.05;;;19.83;;
16870;SDS011;8552;48.120;-1.456;2023-06-10T08:57:26;24.08;;;20.42;;
16870;SDS011;8552;48.120;-1.456;2023-06-10T08:59:53;25.33;;;20.00;;
16870;SDS011;8552;48.120;-1.456;2023-06-10T09:02:20;26.65;;;20.95;;
16870;SDS011;8552;48.120;-1.456;2023-06-10T09:04:46;25.50;;;19.55;;
16870;SDS011;8552;48.120;-1.456;2023-06-10T09:07:13;27.90;;;20.48;;
16870;SDS011;8552;48.120;-1.456;2023-06-10T09:09:41;21.35;;;18.60;;
16870;SDS011;8552;48.120;-1.456;2023-06-10T09:12:07;25.35;;;20.08;;
16870;SDS011;8552;48.120;-1.456;2023-06-10T09:14:34;25.52;;;20.77;;
16870;SDS011;8552;48.120;-1.456;2023-06-10T09:17:01;25.48;;;20.70;;
16870;SDS011;8552;48.120;-1.456;2023-06-10T09:19:27;25.30;;;21.30;;
16870;SDS011;8552;48.120;-1.456;2023-06-10T09:21:54;25.65;;;21.35;;
16870;SDS011;8552;48.120;-1.456;2023-06-10T09:24:24;26.40;;;19.60;;
16870;SDS011;8552;48.120;-1.456;2023-06-10T09:27:01;26.25;;;19.83;;
16870;SDS011;8552;48.120;-1.456;2023-06-10T09:29:28;25.63;;;19.23;;
16870;SDS011;8552;48.120;-1.456;2023-06-10T09:31:54;21.15;;;18.60;;
16870;SDS011;8552;48.120;-1.456;2023-06-10T09:34:25;24.85;;;19.30;;
16870;SDS011;8552;48.120;-1.456;2023-06-10T09:36:52;24.88;;;20.95;;
16870;SDS011;8552;48.120;-1.456;2023-06-10T09:39:21;21.98;;;19.65;;
16870;SDS011;8552;48.120;-1.456;2023-06-10T09:41:47;25.60;;;19.25;;
16870;SDS011;8552;48.120;-1.456;2023-06-10T09:44:23;22.73;;;19.25;;
16870;SDS011;8552;48.120;-1.456;2023-06-10T09:46:51;24.73;;;19.55;;
16870;SDS011;8552;48.120;-1.456;2023-06-10T09:49:25;23.75;;;19.02;;
16870;SDS011;8552;48.120;-1.456;2023-06-10T09:51:55;23.92;;;19.90;;
16870;SDS011;8552;48.120;-1.456;2023-06-10T09:54:22;22.17;;;19.88;;
16870;SDS011;8552;48.120;-1.456;2023-06-10T09:56:49;24.38;;;19.83;;
16870;SDS011;8552;48.120;-1.456;2023-06-10T10:02:13;21.50;;;19.20;;
16870;SDS011;8552;48.120;-1.456;2023-06-10T10:04:44;23.35;;;20.58;;
16870;SDS011;8552;48.120;-1.456;2023-06-10T10:07:12;21.63;;;19.38;;
16870;SDS011;8552;48.120;-1.456;2023-06-10T10:09:40;22.38;;;19.35;;
16870;SDS011;8552;48.120;-1.456;2023-06-10T10:12:12;22.55;;;19.63;;
16870;SDS011;8552;48.120;-1.456;2023-06-10T10:14:43;22.55;;;20.13;;
16870;SDS011;8552;48.120;-1.456;2023-06-10T10:17:19;24.50;;;21.13;;
16870;SDS011;8552;48.120;-1.456;2023-06-10T10:19:57;24.27;;;21.67;;
16870;SDS011;8552;48.120;-1.456;2023-06-10T10:22:43;26.10;;;19.83;;
16870;SDS011;8552;48.120;-1.456;2023-06-10T10:25:13;23.65;;;21.15;;
16870;SDS011;8552;48.120;-1.456;2023-06-10T10:27:49;24.52;;;19.00;;
16870;SDS011;8552;48.120;-1.456;2023-06-10T10:30:20;23.45;;;20.23;;
16870;SDS011;8552;48.120;-1.456;2023-06-10T10:33:04;24.20;;;19.88;;
16870;SDS011;8552;48.120;-1.456;2023-06-10T10:35:34;23.52;;;20.23;;
16870;SDS011;8552;48.120;-1.456;2023-06-10T10:38:04;23.90;;;20.77;;
16870;SDS011;8552;48.120;-1.456;2023-06-10T10:40:33;23.08;;;20.20;;
16870;SDS011;8552;48.120;-1.456;2023-06-10T10:43:01;24.10;;;19.88;;
16870;SDS011;8552;48.120;-1.456;2023-06-10T10:45:29;24.95;;;21.23;;
16870;SDS011;8552;48.120;-1.456;2023-06-10T10:47:57;24.35;;;19.75;;
16870;SDS011;8552;48.120;-1.456;2023-06-10T10:50:28;24.85;;;19.83;;
16870;SDS011;8552;48.120;-1.456;2023-06-10T10:53:01;23.17;;;20.48;;
16870;SDS011;8552;48.120;-1.456;2023-06-10T10:55:32;22.75;;;20.00;;
16870;SDS011;8552;48.120;-1.456;2023-06-10T11:00:33;22.67;;;18.85;;
16870;SDS011;8552;48.120;-1.456;2023-06-10T11:03:04;21.80;;;18.13;;
16870;SDS011;8552;48.120;-1.456;2023-06-10T11:08:13;21.73;;;19.15;;
16870;SDS011;8552;48.120;-1.456;2023-06-10T11:10:57;21.10;;;18.95;;
16870;SDS011;8552;48.120;-1.456;2023-06-10T11:13:23;20.55;;;18.40;;
16870;SDS011;8552;48.120;-1.456;2023-06-10T11:15:51;19.83;;;17.60;;
16870;SDS011;8552;48.120;-1.456;2023-06-10T11:18:23;22.00;;;18.33;;
16870;SDS011;8552;48.120;-1.456;2023-06-10T11:31:20;22.55;;;19.73;;
16870;SDS011;8552;48.120;-1.456;2023-06-10T11:33:52;22.17;;;19.92;;
16870;SDS011;8552;48.120;-1.456;2023-06-10T11:36:18;21.42;;;18.88;;
16870;SDS011;8552;48.120;-1.456;2023-06-10T11:38:44;23.42;;;20.35;;
16870;SDS011;8552;48.120;-1.456;2023-06-10T11:41:14;20.02;;;17.50;;
16870;SDS011;8552;48.120;-1.456;2023-06-10T11:43:43;21.00;;;18.67;;
16870;SDS011;8552;48.120;-1.456;2023-06-10T11:46:13;21.48;;;19.15;;
16870;SDS011;8552;48.120;-1.456;2023-06-10T11:48:48;22.38;;;19.33;;
16870;SDS011;8552;48.120;-1.456;2023-06-10T11:51:14;21.40;;;19.08;;
16870;SDS011;8552;48.120;-1.456;2023-06-10T11:53:40;22.08;;;17.58;;
16870;SDS011;8552;48.120;-1.456;2023-06-10T11:56:06;19.02;;;17.00;;
16870;SDS011;8552;48.120;-1.456;2023-06-10T11:58:32;20.88;;;18.67;;
16870;SDS011;8552;48.120;-1.456;2023-06-10T12:00:59;24.73;;;19.27;;
16870;SDS011;8552;48.120;-1.456;2023-06-10T12:03:27;20.58;;;18.38;;
16870;SDS011;8552;48.120;-1.456;2023-06-10T12:06:03;22.80;;;18.25;;
16870;SDS011;8552;48.120;-1.456;2023-06-10T12:08:29;23.35;;;19.20;;
16870;SDS011;8552;48.120;-1.456;2023-06-10T12:10:55;19.52;;;17.05;;
16870;SDS011;8552;48.120;-1.456;2023-06-10T12:13:22;19.38;;;16.83;;
16870;SDS011;8552;48.120;-1.456;2023-06-10T12:15:51;20.75;;;17.88;;
16870;SDS011;8552;48.120;-1.456;2023-06-10T12:20:44;17.70;;;15.77;;
16870;SDS011;8552;48.120;-1.456;2023-06-10T12:23:10;17.75;;;14.90;;
16870;SDS011;8552;48.120;-1.456;2023-06-10T12:25:36;17.40;;;15.60;;
16870;SDS011;8552;48.120;-1.456;2023-06-10T12:28:03;16.67;;;14.95;;
16870;SDS011;8552;48.120;-1.456;2023-06-10T12:30:29;17.77;;;14.93;;
16870;SDS011;8552;48.120;-1.456;2023-06-10T12:32:55;17.48;;;15.68;;
16870;SDS011;8552;48.120;-1.456;2023-06-10T12:35:28;17.17;;;15.38;;
16870;SDS011;8552;48.120;-1.456;2023-06-10T12:37:55;17.10;;;15.35;;
16870;SDS011;8552;48.120;-1.456;2023-06-10T12:40:50;15.35;;;13.75;;
16870;SDS011;8552;48.120;-1.456;2023-06-10T12:43:20;15.68;;;14.10;;
16870;SDS011;8552;48.120;-1.456;2023-06-10T12:45:47;14.45;;;13.05;;
16870;SDS011;8552;48.120;-1.456;2023-06-10T12:48:20;15.88;;;14.20;;
16870;SDS011;8552;48.120;-1.456;2023-06-10T12:50:56;14.68;;;13.13;;
16870;SDS011;8552;48.120;-1.456;2023-06-10T12:53:23;15.55;;;13.98;;
16870;SDS011;8552;48.120;-1.456;2023-06-10T12:55:49;18.85;;;16.60;;
16870;SDS011;8552;48.120;-1.456;2023-06-10T12:58:16;17.98;;;15.98;;
16870;SDS011;8552;48.120;-1.456;2023-06-10T13:00:42;14.43;;;12.98;;
16870;SDS011;8552;48.120;-1.456;2023-06-10T13:03:09;15.05;;;13.55;;
16870;SDS011;8552;48.120;-1.456;2023-06-10T13:05:35;13.85;;;12.43;;
16870;SDS011;8552;48.120;-1.456;2023-06-10T13:08:03;14.43;;;12.85;;
16870;SDS011;8552;48.120;-1.456;2023-06-10T13:10:29;15.57;;;13.98;;
16870;SDS011;8552;48.120;-1.456;2023-06-10T13:12:55;14.63;;;13.18;;
16870;SDS011;8552;48.120;-1.456;2023-06-10T13:15:21;15.13;;;13.57;;
16870;SDS011;8552;48.120;-1.456;2023-06-10T13:17:47;15.27;;;13.68;;
16870;SDS011;8552;48.120;-1.456;2023-06-10T13:20:16;13.30;;;12.10;;
16870;SDS011;8552;48.120;-1.456;2023-06-10T13:22:42;13.05;;;11.73;;
16870;SDS011;8552;48.120;-1.456;2023-06-10T13:25:09;14.88;;;13.30;;
16870;SDS011;8552;48.120;-1.456;2023-06-10T13:27:35;14.40;;;12.90;;
16870;SDS011;8552;48.120;-1.456;2023-06-10T13:30:05;15.20;;;13.80;;
16870;SDS011;8552;48.120;-1.456;2023-06-10T13:32:31;12.65;;;11.35;;
16870;SDS011;8552;48.120;-1.456;2023-06-10T13:34:57;11.98;;;10.77;;
16870;SDS011;8552;48.120;-1.456;2023-06-10T13:37:23;12.35;;;11.25;;
16870;SDS011;8552;48.120;-1.456;2023-06-10T13:39:49;11.45;;;10.43;;
16870;SDS011;8552;48.120;-1.456;2023-06-10T13:42:16;14.43;;;10.88;;
16870;SDS011;8552;48.120;-1.456;2023-06-10T13:44:42;12.38;;;11.30;;
16870;SDS011;8552;48.120;-1.456;2023-06-10T13:47:08;12.57;;;11.38;;
16870;SDS011;8552;48.120;-1.456;2023-06-10T13:49:34;11.30;;;10.00;;
16870;SDS011;8552;48.120;-1.456;2023-06-10T13:52:01;11.18;;;10.15;;
16870;SDS011;8552;48.120;-1.456;2023-06-10T13:54:27;12.23;;;10.18;;
16870;SDS011;8552;48.120;-1.456;2023-06-10T13:56:53;10.65;;;9.45;;
16870;SDS011;8552;48.120;-1.456;2023-06-10T13:59:19;10.48;;;9.48;;
16870;SDS011;8552;48.120;-1.456;2023-06-10T14:01:46;10.85;;;9.75;;
16870;SDS011;8552;48.120;-1.456;2023-06-10T14:04:12;10.73;;;8.95;;
16870;SDS011;8552;48.120;-1.456;2023-06-10T14:06:38;9.30;;;8.40;;
16870;SDS011;8552;48.120;-1.456;2023-06-10T14:09:05;10.27;;;9.38;;
16870;SDS011;8552;48.120;-1.456;2023-06-10T14:11:31;8.90;;;8.10;;
16870;SDS011;8552;48.120;-1.456;2023-06-10T14:13:58;8.40;;;7.70;;
16870;SDS011;8552;48.120;-1.456;2023-06-10T14:16:25;8.55;;;7.75;;
16870;SDS011;8552;48.120;-1.456;2023-06-10T14:18:51;9.00;;;8.13;;
16870;SDS011;8552;48.120;-1.456;2023-06-10T14:21:18;9.35;;;8.45;;
16870;SDS011;8552;48.120;-1.456;2023-06-10T14:23:44;9.57;;;8.68;;
16870;SDS011;8552;48.120;-1.456;2023-06-10T14:26:10;8.85;;;8.02;;
16870;SDS011;8552;48.120;-1.456;2023-06-10T14:28:36;8.88;;;8.07;;
16870;SDS011;8552;48.120;-1.456;2023-06-10T14:31:02;10.90;;;9.45;;
16870;SDS011;8552;48.120;-1.456;2023-06-10T14:33:28;9.07;;;7.72;;
16870;SDS011;8552;48.120;-1.456;2023-06-10T14:35:56;9.50;;;8.60;;
16870;SDS011;8552;48.120;-1.456;2023-06-10T14:38:22;10.02;;;8.15;;
16870;SDS011;8552;48.120;-1.456;2023-06-10T14:40:48;9.57;;;8.57;;
16870;SDS011;8552;48.120;-1.456;2023-06-10T14:43:14;9.00;;;8.10;;
16870;SDS011;8552;48.120;-1.456;2023-06-10T14:45:40;9.57;;;8.65;;
16870;SDS011;8552;48.120;-1.456;2023-06-10T14:48:06;9.05;;;8.10;;